<?xml version="1.0" encoding="UTF-8" standalone="no" ?>
<gpx xmlns="http://www.topografix.com/GPX/1/1" xmlns:xsi="http://www.w3.org/2001/XMLSchema-instance" xsi:schemaLocation="http://www.topografix.com/GPX/1/1 http://www.topografix.com/GPX/1/1/gpx.xsd" version="1.1" creator="VisuGPX - https://www.visugpx.com">
  <metadata>
    <name>secteur Saverne - Dabo - Petite Pierre</name>
  </metadata>
  <trk>
    <name><![CDATA[secteur Saverne - Dabo - Petite Pierre_20]]></name>
    <trkseg>
      <trkpt lat="48.75611" lon="7.26516">
        <ele>361.7</ele>
        <time>2020-05-21T17:35:08.000Z</time>
      </trkpt>
      <trkpt lat="48.75611" lon="7.26516">
        <ele>361.7</ele>
        <time>2020-05-21T17:35:08.000Z</time>
      </trkpt>
      <trkpt lat="48.75611" lon="7.26516">
        <ele>361.7</ele>
        <time>2020-05-21T17:35:08.000Z</time>
      </trkpt>
      <trkpt lat="48.75611" lon="7.26516">
        <ele>361.7</ele>
        <time>2020-05-21T17:35:08.000Z</time>
      </trkpt>
      <trkpt lat="48.75611" lon="7.26516">
        <ele>361.7</ele>
        <time>2020-05-21T17:35:08.000Z</time>
      </trkpt>
      <trkpt lat="48.75611" lon="7.26516">
        <ele>361.7</ele>
        <time>2020-05-21T17:35:08.000Z</time>
      </trkpt>
      <trkpt lat="48.75611" lon="7.26516">
        <ele>361.7</ele>
        <time>2020-05-21T17:35:08.000Z</time>
      </trkpt>
      <trkpt lat="48.7562" lon="7.26515">
        <ele>360.4</ele>
        <time>2020-05-21T17:35:09.000Z</time>
      </trkpt>
      <trkpt lat="48.75628" lon="7.26513">
        <ele>361.8</ele>
        <time>2020-05-21T17:35:10.000Z</time>
      </trkpt>
      <trkpt lat="48.75633" lon="7.2651">
        <ele>362.22</ele>
        <time>2020-05-21T17:35:11.000Z</time>
      </trkpt>
      <trkpt lat="48.75638" lon="7.26507">
        <ele>360.92</ele>
        <time>2020-05-21T17:35:12.000Z</time>
      </trkpt>
      <trkpt lat="48.75643" lon="7.26504">
        <ele>361.57</ele>
        <time>2020-05-21T17:35:13.000Z</time>
      </trkpt>
      <trkpt lat="48.75648" lon="7.26502">
        <ele>363.22</ele>
        <time>2020-05-21T17:35:14.000Z</time>
      </trkpt>
      <trkpt lat="48.75654" lon="7.26495">
        <ele>366.14</ele>
        <time>2020-05-21T17:35:16.000Z</time>
      </trkpt>
      <trkpt lat="48.75658" lon="7.26492">
        <ele>366.29</ele>
        <time>2020-05-21T17:35:17.000Z</time>
      </trkpt>
      <trkpt lat="48.75663" lon="7.26484">
        <ele>363.34</ele>
        <time>2020-05-21T17:35:18.000Z</time>
      </trkpt>
      <trkpt lat="48.75667" lon="7.26478">
        <ele>362.73</ele>
        <time>2020-05-21T17:35:19.000Z</time>
      </trkpt>
      <trkpt lat="48.75671" lon="7.26473">
        <ele>362.09</ele>
        <time>2020-05-21T17:35:20.000Z</time>
      </trkpt>
      <trkpt lat="48.75676" lon="7.26469">
        <ele>360.11</ele>
        <time>2020-05-21T17:35:21.000Z</time>
      </trkpt>
      <trkpt lat="48.75685" lon="7.26463">
        <ele>360.37</ele>
        <time>2020-05-21T17:35:23.000Z</time>
      </trkpt>
      <trkpt lat="48.75693" lon="7.26454">
        <ele>363.02</ele>
        <time>2020-05-21T17:35:25.000Z</time>
      </trkpt>
      <trkpt lat="48.75697" lon="7.26451">
        <ele>363.87</ele>
        <time>2020-05-21T17:35:26.000Z</time>
      </trkpt>
      <trkpt lat="48.757" lon="7.26444">
        <ele>361.77</ele>
        <time>2020-05-21T17:35:27.000Z</time>
      </trkpt>
      <trkpt lat="48.75706" lon="7.26438">
        <ele>362.23</ele>
        <time>2020-05-21T17:35:29.000Z</time>
      </trkpt>
      <trkpt lat="48.75714" lon="7.26427">
        <ele>360.14</ele>
        <time>2020-05-21T17:35:31.000Z</time>
      </trkpt>
      <trkpt lat="48.75719" lon="7.26422">
        <ele>358.83</ele>
        <time>2020-05-21T17:35:33.000Z</time>
      </trkpt>
      <trkpt lat="48.75726" lon="7.26413">
        <ele>359.52</ele>
        <time>2020-05-21T17:35:35.000Z</time>
      </trkpt>
      <trkpt lat="48.75732" lon="7.26407">
        <ele>359.09</ele>
        <time>2020-05-21T17:35:37.000Z</time>
      </trkpt>
      <trkpt lat="48.75737" lon="7.26401">
        <ele>357.57</ele>
        <time>2020-05-21T17:35:39.000Z</time>
      </trkpt>
      <trkpt lat="48.75744" lon="7.26393">
        <ele>356.72</ele>
        <time>2020-05-21T17:35:41.000Z</time>
      </trkpt>
      <trkpt lat="48.75748" lon="7.26389">
        <ele>356.83</ele>
        <time>2020-05-21T17:35:42.000Z</time>
      </trkpt>
      <trkpt lat="48.75767" lon="7.26374">
        <ele>356.92</ele>
        <time>2020-05-21T17:35:45.000Z</time>
      </trkpt>
      <trkpt lat="48.7577" lon="7.26369">
        <ele>358.66</ele>
        <time>2020-05-21T17:35:46.000Z</time>
      </trkpt>
      <trkpt lat="48.75776" lon="7.26359">
        <ele>358.53</ele>
        <time>2020-05-21T17:35:48.000Z</time>
      </trkpt>
      <trkpt lat="48.75781" lon="7.26355">
        <ele>357.92</ele>
        <time>2020-05-21T17:35:49.000Z</time>
      </trkpt>
      <trkpt lat="48.75786" lon="7.26351">
        <ele>356.33</ele>
        <time>2020-05-21T17:35:50.000Z</time>
      </trkpt>
      <trkpt lat="48.75795" lon="7.26343">
        <ele>357.77</ele>
        <time>2020-05-21T17:35:52.000Z</time>
      </trkpt>
      <trkpt lat="48.75808" lon="7.26331">
        <ele>354.54</ele>
        <time>2020-05-21T17:35:54.000Z</time>
      </trkpt>
      <trkpt lat="48.75814" lon="7.26326">
        <ele>354.46</ele>
        <time>2020-05-21T17:35:55.000Z</time>
      </trkpt>
      <trkpt lat="48.75818" lon="7.26322">
        <ele>353.96</ele>
        <time>2020-05-21T17:35:56.000Z</time>
      </trkpt>
      <trkpt lat="48.75828" lon="7.26315">
        <ele>353.93</ele>
        <time>2020-05-21T17:35:58.000Z</time>
      </trkpt>
      <trkpt lat="48.75833" lon="7.2631">
        <ele>353.55</ele>
        <time>2020-05-21T17:35:59.000Z</time>
      </trkpt>
      <trkpt lat="48.75837" lon="7.26308">
        <ele>356.6</ele>
        <time>2020-05-21T17:36:00.000Z</time>
      </trkpt>
      <trkpt lat="48.75841" lon="7.26303">
        <ele>357.87</ele>
        <time>2020-05-21T17:36:01.000Z</time>
      </trkpt>
      <trkpt lat="48.75846" lon="7.26298">
        <ele>358.98</ele>
        <time>2020-05-21T17:36:02.000Z</time>
      </trkpt>
      <trkpt lat="48.7585" lon="7.2629">
        <ele>357.95</ele>
        <time>2020-05-21T17:36:03.000Z</time>
      </trkpt>
      <trkpt lat="48.75855" lon="7.26284">
        <ele>358.13</ele>
        <time>2020-05-21T17:36:04.000Z</time>
      </trkpt>
      <trkpt lat="48.75861" lon="7.26277">
        <ele>355.75</ele>
        <time>2020-05-21T17:36:05.000Z</time>
      </trkpt>
      <trkpt lat="48.75863" lon="7.2627">
        <ele>355.87</ele>
        <time>2020-05-21T17:36:06.000Z</time>
      </trkpt>
      <trkpt lat="48.75873" lon="7.26243">
        <ele>355.9</ele>
        <time>2020-05-21T17:36:09.000Z</time>
      </trkpt>
      <trkpt lat="48.75876" lon="7.26237">
        <ele>356.8</ele>
        <time>2020-05-21T17:36:10.000Z</time>
      </trkpt>
      <trkpt lat="48.75877" lon="7.26227">
        <ele>355.32</ele>
        <time>2020-05-21T17:36:11.000Z</time>
      </trkpt>
      <trkpt lat="48.7588" lon="7.2622">
        <ele>355.8</ele>
        <time>2020-05-21T17:36:12.000Z</time>
      </trkpt>
      <trkpt lat="48.75881" lon="7.26212">
        <ele>354.51</ele>
        <time>2020-05-21T17:36:13.000Z</time>
      </trkpt>
      <trkpt lat="48.75884" lon="7.26205">
        <ele>353.86</ele>
        <time>2020-05-21T17:36:14.000Z</time>
      </trkpt>
      <trkpt lat="48.75887" lon="7.26201">
        <ele>354.23</ele>
        <time>2020-05-21T17:36:15.000Z</time>
      </trkpt>
      <trkpt lat="48.7589" lon="7.26193">
        <ele>356.17</ele>
        <time>2020-05-21T17:36:17.000Z</time>
      </trkpt>
      <trkpt lat="48.75895" lon="7.26187">
        <ele>356.77</ele>
        <time>2020-05-21T17:36:20.000Z</time>
      </trkpt>
      <trkpt lat="48.759" lon="7.26181">
        <ele>373.18</ele>
        <time>2020-05-21T17:36:22.000Z</time>
      </trkpt>
      <trkpt lat="48.75904" lon="7.26176">
        <ele>367.68</ele>
        <time>2020-05-21T17:36:25.000Z</time>
      </trkpt>
      <trkpt lat="48.75907" lon="7.26172">
        <ele>365.6</ele>
        <time>2020-05-21T17:36:28.000Z</time>
      </trkpt>
      <trkpt lat="48.75911" lon="7.26167">
        <ele>363.8</ele>
        <time>2020-05-21T17:36:30.000Z</time>
      </trkpt>
      <trkpt lat="48.75916" lon="7.26161">
        <ele>362.53</ele>
        <time>2020-05-21T17:36:32.000Z</time>
      </trkpt>
      <trkpt lat="48.7592" lon="7.26154">
        <ele>362.73</ele>
        <time>2020-05-21T17:36:35.000Z</time>
      </trkpt>
      <trkpt lat="48.75924" lon="7.26148">
        <ele>361.71</ele>
        <time>2020-05-21T17:36:37.000Z</time>
      </trkpt>
      <trkpt lat="48.75929" lon="7.26142">
        <ele>360.3</ele>
        <time>2020-05-21T17:36:40.000Z</time>
      </trkpt>
      <trkpt lat="48.75932" lon="7.26137">
        <ele>361.77</ele>
        <time>2020-05-21T17:36:42.000Z</time>
      </trkpt>
      <trkpt lat="48.75936" lon="7.26132">
        <ele>360.04</ele>
        <time>2020-05-21T17:36:44.000Z</time>
      </trkpt>
      <trkpt lat="48.75939" lon="7.26127">
        <ele>359.02</ele>
        <time>2020-05-21T17:36:46.000Z</time>
      </trkpt>
      <trkpt lat="48.75943" lon="7.26119">
        <ele>359.82</ele>
        <time>2020-05-21T17:36:48.000Z</time>
      </trkpt>
      <trkpt lat="48.75947" lon="7.26112">
        <ele>358.82</ele>
        <time>2020-05-21T17:36:50.000Z</time>
      </trkpt>
      <trkpt lat="48.75951" lon="7.26104">
        <ele>356.86</ele>
        <time>2020-05-21T17:36:52.000Z</time>
      </trkpt>
      <trkpt lat="48.75956" lon="7.26093">
        <ele>358.32</ele>
        <time>2020-05-21T17:36:54.000Z</time>
      </trkpt>
      <trkpt lat="48.7596" lon="7.26089">
        <ele>358.23</ele>
        <time>2020-05-21T17:36:55.000Z</time>
      </trkpt>
      <trkpt lat="48.75969" lon="7.26077">
        <ele>357.8</ele>
        <time>2020-05-21T17:36:57.000Z</time>
      </trkpt>
      <trkpt lat="48.75974" lon="7.26073">
        <ele>358.63</ele>
        <time>2020-05-21T17:36:58.000Z</time>
      </trkpt>
      <trkpt lat="48.75982" lon="7.26066">
        <ele>359.67</ele>
        <time>2020-05-21T17:37:00.000Z</time>
      </trkpt>
      <trkpt lat="48.75989" lon="7.2606">
        <ele>358.58</ele>
        <time>2020-05-21T17:37:02.000Z</time>
      </trkpt>
      <trkpt lat="48.75993" lon="7.26056">
        <ele>358.64</ele>
        <time>2020-05-21T17:37:03.000Z</time>
      </trkpt>
      <trkpt lat="48.76001" lon="7.2605">
        <ele>358.27</ele>
        <time>2020-05-21T17:37:05.000Z</time>
      </trkpt>
      <trkpt lat="48.76007" lon="7.2604">
        <ele>357.39</ele>
        <time>2020-05-21T17:37:07.000Z</time>
      </trkpt>
      <trkpt lat="48.76011" lon="7.26037">
        <ele>357.87</ele>
        <time>2020-05-21T17:37:08.000Z</time>
      </trkpt>
      <trkpt lat="48.76018" lon="7.26034">
        <ele>358.77</ele>
        <time>2020-05-21T17:37:10.000Z</time>
      </trkpt>
      <trkpt lat="48.76023" lon="7.2603">
        <ele>359.88</ele>
        <time>2020-05-21T17:37:11.000Z</time>
      </trkpt>
      <trkpt lat="48.76031" lon="7.26026">
        <ele>356.82</ele>
        <time>2020-05-21T17:37:13.000Z</time>
      </trkpt>
      <trkpt lat="48.76039" lon="7.26025">
        <ele>355.19</ele>
        <time>2020-05-21T17:37:15.000Z</time>
      </trkpt>
      <trkpt lat="48.76047" lon="7.26024">
        <ele>352.86</ele>
        <time>2020-05-21T17:37:17.000Z</time>
      </trkpt>
      <trkpt lat="48.76096" lon="7.26026">
        <ele>362.84</ele>
        <time>2020-05-21T17:37:28.000Z</time>
      </trkpt>
      <trkpt lat="48.76103" lon="7.26027">
        <ele>359.99</ele>
        <time>2020-05-21T17:37:30.000Z</time>
      </trkpt>
      <trkpt lat="48.7611" lon="7.26031">
        <ele>358.19</ele>
        <time>2020-05-21T17:37:32.000Z</time>
      </trkpt>
      <trkpt lat="48.76116" lon="7.26033">
        <ele>357.76</ele>
        <time>2020-05-21T17:37:34.000Z</time>
      </trkpt>
      <trkpt lat="48.76122" lon="7.26035">
        <ele>357.01</ele>
        <time>2020-05-21T17:37:36.000Z</time>
      </trkpt>
      <trkpt lat="48.76128" lon="7.26037">
        <ele>357.56</ele>
        <time>2020-05-21T17:37:38.000Z</time>
      </trkpt>
      <trkpt lat="48.76133" lon="7.2604">
        <ele>357.68</ele>
        <time>2020-05-21T17:37:40.000Z</time>
      </trkpt>
      <trkpt lat="48.76138" lon="7.26043">
        <ele>358.06</ele>
        <time>2020-05-21T17:37:42.000Z</time>
      </trkpt>
      <trkpt lat="48.76143" lon="7.26045">
        <ele>358.24</ele>
        <time>2020-05-21T17:37:44.000Z</time>
      </trkpt>
      <trkpt lat="48.76148" lon="7.26047">
        <ele>357.84</ele>
        <time>2020-05-21T17:37:46.000Z</time>
      </trkpt>
      <trkpt lat="48.76154" lon="7.26048">
        <ele>357.72</ele>
        <time>2020-05-21T17:37:48.000Z</time>
      </trkpt>
      <trkpt lat="48.76159" lon="7.26051">
        <ele>357.98</ele>
        <time>2020-05-21T17:37:50.000Z</time>
      </trkpt>
      <trkpt lat="48.76164" lon="7.26052">
        <ele>358.7</ele>
        <time>2020-05-21T17:37:52.000Z</time>
      </trkpt>
      <trkpt lat="48.7617" lon="7.26055">
        <ele>360.25</ele>
        <time>2020-05-21T17:37:55.000Z</time>
      </trkpt>
      <trkpt lat="48.76174" lon="7.26056">
        <ele>360.86</ele>
        <time>2020-05-21T17:37:57.000Z</time>
      </trkpt>
      <trkpt lat="48.76179" lon="7.26056">
        <ele>360.51</ele>
        <time>2020-05-21T17:37:59.000Z</time>
      </trkpt>
      <trkpt lat="48.76185" lon="7.26058">
        <ele>362.41</ele>
        <time>2020-05-21T17:38:02.000Z</time>
      </trkpt>
      <trkpt lat="48.76191" lon="7.26059">
        <ele>361.79</ele>
        <time>2020-05-21T17:38:05.000Z</time>
      </trkpt>
      <trkpt lat="48.76198" lon="7.26059">
        <ele>361.83</ele>
        <time>2020-05-21T17:38:08.000Z</time>
      </trkpt>
      <trkpt lat="48.76205" lon="7.26058">
        <ele>366.25</ele>
        <time>2020-05-21T17:38:11.000Z</time>
      </trkpt>
      <trkpt lat="48.76211" lon="7.2606">
        <ele>366.41</ele>
        <time>2020-05-21T17:38:14.000Z</time>
      </trkpt>
      <trkpt lat="48.76217" lon="7.26061">
        <ele>367.86</ele>
        <time>2020-05-21T17:38:17.000Z</time>
      </trkpt>
      <trkpt lat="48.76222" lon="7.2606">
        <ele>366.02</ele>
        <time>2020-05-21T17:38:20.000Z</time>
      </trkpt>
      <trkpt lat="48.76228" lon="7.26061">
        <ele>366.12</ele>
        <time>2020-05-21T17:38:23.000Z</time>
      </trkpt>
      <trkpt lat="48.76235" lon="7.26063">
        <ele>367.04</ele>
        <time>2020-05-21T17:38:26.000Z</time>
      </trkpt>
      <trkpt lat="48.7624" lon="7.26063">
        <ele>369.01</ele>
        <time>2020-05-21T17:38:28.000Z</time>
      </trkpt>
      <trkpt lat="48.76246" lon="7.26065">
        <ele>370.21</ele>
        <time>2020-05-21T17:38:31.000Z</time>
      </trkpt>
      <trkpt lat="48.76251" lon="7.26067">
        <ele>370.03</ele>
        <time>2020-05-21T17:38:34.000Z</time>
      </trkpt>
      <trkpt lat="48.76257" lon="7.2607">
        <ele>369.54</ele>
        <time>2020-05-21T17:38:37.000Z</time>
      </trkpt>
      <trkpt lat="48.76263" lon="7.26073">
        <ele>369.58</ele>
        <time>2020-05-21T17:38:40.000Z</time>
      </trkpt>
      <trkpt lat="48.76268" lon="7.26074">
        <ele>369.55</ele>
        <time>2020-05-21T17:38:43.000Z</time>
      </trkpt>
      <trkpt lat="48.76273" lon="7.26075">
        <ele>369.08</ele>
        <time>2020-05-21T17:38:46.000Z</time>
      </trkpt>
      <trkpt lat="48.76278" lon="7.26076">
        <ele>368.14</ele>
        <time>2020-05-21T17:38:49.000Z</time>
      </trkpt>
      <trkpt lat="48.76284" lon="7.26077">
        <ele>367.53</ele>
        <time>2020-05-21T17:38:52.000Z</time>
      </trkpt>
      <trkpt lat="48.76289" lon="7.2608">
        <ele>370.5</ele>
        <time>2020-05-21T17:38:55.000Z</time>
      </trkpt>
      <trkpt lat="48.76294" lon="7.26083">
        <ele>373.15</ele>
        <time>2020-05-21T17:38:58.000Z</time>
      </trkpt>
      <trkpt lat="48.76299" lon="7.26086">
        <ele>372.92</ele>
        <time>2020-05-21T17:39:01.000Z</time>
      </trkpt>
      <trkpt lat="48.76305" lon="7.26089">
        <ele>372.26</ele>
        <time>2020-05-21T17:39:04.000Z</time>
      </trkpt>
      <trkpt lat="48.76311" lon="7.26092">
        <ele>371.57</ele>
        <time>2020-05-21T17:39:07.000Z</time>
      </trkpt>
      <trkpt lat="48.76315" lon="7.26095">
        <ele>370.49</ele>
        <time>2020-05-21T17:39:10.000Z</time>
      </trkpt>
      <trkpt lat="48.76321" lon="7.26098">
        <ele>371.18</ele>
        <time>2020-05-21T17:39:14.000Z</time>
      </trkpt>
      <trkpt lat="48.76326" lon="7.26099">
        <ele>374.47</ele>
        <time>2020-05-21T17:39:17.000Z</time>
      </trkpt>
      <trkpt lat="48.76331" lon="7.26101">
        <ele>375.48</ele>
        <time>2020-05-21T17:39:20.000Z</time>
      </trkpt>
      <trkpt lat="48.76336" lon="7.26104">
        <ele>374.68</ele>
        <time>2020-05-21T17:39:23.000Z</time>
      </trkpt>
      <trkpt lat="48.76342" lon="7.26107">
        <ele>376.8</ele>
        <time>2020-05-21T17:39:26.000Z</time>
      </trkpt>
    </trkseg>
  </trk>
</gpx>